sensor_id;sensor_type;location;lat;lon;timestamp;P1;durP1;ratioP1;P2;durP2;ratioP2
29574;SDS011;16507;51.046;6.406;2023-07-31T00:00:31;5.47;;;3.50;;
29574;SDS011;16507;51.046;6.406;2023-07-31T00:02:57;8.35;;;3.50;;
29574;SDS011;16507;51.046;6.406;2023-07-31T00:05:23;12.32;;;3.90;;
29574;SDS011;16507;51.046;6.406;2023-07-31T00:07:48;9.50;;;3.17;;
29574;SDS011;16507;51.046;6.406;2023-07-31T00:10:14;9.10;;;3.53;;
29574;SDS011;16507;51.046;6.406;2023-07-31T00:12:43;8.57;;;3.53;;
29574;SDS011;16507;51.046;6.406;2023-07-31T00:15:10;14.00;;;4.18;;
29574;SDS011;16507;51.046;6.406;2023-07-31T00:17:36;10.07;;;3.97;;
29574;SDS011;16507;51.046;6.406;2023-07-31T00:20:02;9.52;;;3.97;;
29574;SDS011;16507;51.046;6.406;2023-07-31T00:22:28;8.13;;;3.60;;
29574;SDS011;16507;51.046;6.406;2023-07-31T00:24:53;10.00;;;4.13;;
29574;SDS011;16507;51.046;6.406;2023-07-31T00:27:19;10.75;;;3.65;;
29574;SDS011;16507;51.046;6.406;2023-07-31T00:29:44;6.95;;;3.45;;
29574;SDS011;16507;51.046;6.406;2023-07-31T00:32:10;12.68;;;3.78;;
29574;SDS011;16507;51.046;6.406;2023-07-31T00:34:37;7.10;;;3.15;;
29574;SDS011;16507;51.046;6.406;2023-07-31T00:37:02;8.45;;;3.90;;
29574;SDS011;16507;51.046;6.406;2023-07-31T00:39:29;7.80;;;3.90;;
29574;SDS011;16507;51.046;6.406;2023-07-31T00:41:55;9.20;;;3.75;;
29574;SDS011;16507;51.046;6.406;2023-07-31T00:44:21;3.50;;;3.00;;
29574;SDS011;16507;51.046;6.406;2023-07-31T00:46:47;8.15;;;3.75;;
29574;SDS011;16507;51.046;6.406;2023-07-31T00:49:13;6.88;;;3.85;;
29574;SDS011;16507;51.046;6.406;2023-07-31T00:51:39;8.15;;;3.22;;
29574;SDS011;16507;51.046;6.406;2023-07-31T00:54:05;11.55;;;3.63;;
29574;SDS011;16507;51.046;6.406;2023-07-31T00:56:31;11.05;;;3.28;;
29574;SDS011;16507;51.046;6.406;2023-07-31T00:58:57;7.97;;;3.15;;
29574;SDS011;16507;51.046;6.406;2023-07-31T01:01:22;9.18;;;3.70;;
29574;SDS011;16507;51.046;6.406;2023-07-31T01:03:48;11.35;;;3.90;;
29574;SDS011;16507;51.046;6.406;2023-07-31T01:11:33;7.88;;;3.22;;
29574;SDS011;16507;51.046;6.406;2023-07-31T01:14:03;10.32;;;3.90;;
29574;SDS011;16507;51.046;6.406;2023-07-31T01:16:29;7.30;;;3.70;;
29574;SDS011;16507;51.046;6.406;2023-07-31T01:18:54;4.97;;;3.90;;
29574;SDS011;16507;51.046;6.406;2023-07-31T01:24:08;7.40;;;3.30;;
29574;SDS011;16507;51.046;6.406;2023-07-31T01:26:40;8.32;;;3.50;;
29574;SDS011;16507;51.046;6.406;2023-07-31T01:29:27;7.87;;;3.23;;
29574;SDS011;16507;51.046;6.406;2023-07-31T01:32:01;10.80;;;3.35;;
29574;SDS011;16507;51.046;6.406;2023-07-31T01:34:29;9.00;;;3.42;;
29574;SDS011;16507;51.046;6.406;2023-07-31T01:36:56;9.68;;;3.58;;
29574;SDS011;16507;51.046;6.406;2023-07-31T01:39:23;11.23;;;4.07;;
29574;SDS011;16507;51.046;6.406;2023-07-31T01:41:49;14.25;;;4.65;;
29574;SDS011;16507;51.046;6.406;2023-07-31T01:44:14;12.30;;;3.30;;
29574;SDS011;16507;51.046;6.406;2023-07-31T01:46:40;13.45;;;4.10;;
29574;SDS011;16507;51.046;6.406;2023-07-31T01:49:05;17.98;;;4.63;;
29574;SDS011;16507;51.046;6.406;2023-07-31T01:51:31;10.57;;;3.55;;
29574;SDS011;16507;51.046;6.406;2023-07-31T01:53:59;7.55;;;3.53;;
29574;SDS011;16507;51.046;6.406;2023-07-31T01:56:25;9.82;;;3.70;;
29574;SDS011;16507;51.046;6.406;2023-07-31T01:58:51;10.30;;;3.78;;
29574;SDS011;16507;51.046;6.406;2023-07-31T02:01:16;4.97;;;3.33;;
29574;SDS011;16507;51.046;6.406;2023-07-31T02:03:42;10.48;;;3.40;;
29574;SDS011;16507;51.046;6.406;2023-07-31T02:06:08;8.00;;;4.20;;
29574;SDS011;16507;51.046;6.406;2023-07-31T02:08:33;8.85;;;3.22;;
29574;SDS011;16507;51.046;6.406;2023-07-31T02:10:59;6.78;;;3.10;;
29574;SDS011;16507;51.046;6.406;2023-07-31T02:13:25;9.93;;;3.97;;
29574;SDS011;16507;51.046;6.406;2023-07-31T02:15:50;6.90;;;3.72;;
29574;SDS011;16507;51.046;6.406;2023-07-31T02:18:16;6.32;;;3.67;;
29574;SDS011;16507;51.046;6.406;2023-07-31T02:20:42;9.45;;;3.20;;
29574;SDS011;16507;51.046;6.406;2023-07-31T02:23:08;5.50;;;3.78;;
29574;SDS011;16507;51.046;6.406;2023-07-31T02:25:34;9.82;;;3.70;;
29574;SDS011;16507;51.046;6.406;2023-07-31T02:27:59;10.70;;;3.90;;
29574;SDS011;16507;51.046;6.406;2023-07-31T02:30:25;7.90;;;3.60;;
29574;SDS011;16507;51.046;6.406;2023-07-31T02:32:50;12.20;;;3.90;;
29574;SDS011;16507;51.046;6.406;2023-07-31T02:35:16;8.50;;;3.25;;
29574;SDS011;16507;51.046;6.406;2023-07-31T02:37:43;12.30;;;3.85;;
29574;SDS011;16507;51.046;6.406;2023-07-31T02:40:09;7.85;;;3.25;;
29574;SDS011;16507;51.046;6.406;2023-07-31T02:42:35;13.95;;;3.72;;
29574;SDS011;16507;51.046;6.406;2023-07-31T02:45:00;10.30;;;3.83;;
29574;SDS011;16507;51.046;6.406;2023-07-31T02:47:26;7.50;;;3.50;;
29574;SDS011;16507;51.046;6.406;2023-07-31T02:49:51;10.38;;;3.72;;
29574;SDS011;16507;51.046;6.406;2023-07-31T02:52:17;11.00;;;4.32;;
29574;SDS011;16507;51.046;6.406;2023-07-31T02:54:43;9.85;;;4.10;;
29574;SDS011;16507;51.046;6.406;2023-07-31T02:57:08;8.20;;;4.28;;
29574;SDS011;16507;51.046;6.406;2023-07-31T02:59:34;7.13;;;3.10;;
29574;SDS011;16507;51.046;6.406;2023-07-31T03:01:59;8.02;;;3.78;;
29574;SDS011;16507;51.046;6.406;2023-07-31T03:04:25;10.05;;;3.67;;
29574;SDS011;16507;51.046;6.406;2023-07-31T03:06:51;8.48;;;3.78;;
29574;SDS011;16507;51.046;6.406;2023-07-31T03:09:16;5.68;;;4.00;;
29574;SDS011;16507;51.046;6.406;2023-07-31T03:11:42;8.40;;;3.95;;
29574;SDS011;16507;51.046;6.406;2023-07-31T03:14:07;13.45;;;4.35;;
29574;SDS011;16507;51.046;6.406;2023-07-31T03:16:33;11.25;;;4.57;;
29574;SDS011;16507;51.046;6.406;2023-07-31T03:18:58;7.72;;;3.75;;
29574;SDS011;16507;51.046;6.406;2023-07-31T03:21:24;14.23;;;4.60;;
29574;SDS011;16507;51.046;6.406;2023-07-31T03:23:49;6.63;;;3.45;;
29574;SDS011;16507;51.046;6.406;2023-07-31T03:26:15;7.93;;;3.70;;
29574;SDS011;16507;51.046;6.406;2023-07-31T03:28:41;9.20;;;3.90;;
29574;SDS011;16507;51.046;6.406;2023-07-31T03:31:06;8.90;;;4.10;;
29574;SDS011;16507;51.046;6.406;2023-07-31T03:33:33;8.18;;;4.57;;
29574;SDS011;16507;51.046;6.406;2023-07-31T03:35:59;6.88;;;3.90;;
29574;SDS011;16507;51.046;6.406;2023-07-31T03:38:24;8.95;;;4.30;;
29574;SDS011;16507;51.046;6.406;2023-07-31T03:40:50;6.65;;;3.97;;
29574;SDS011;16507;51.046;6.406;2023-07-31T03:43:16;9.40;;;3.72;;
29574;SDS011;16507;51.046;6.406;2023-07-31T03:45:41;11.63;;;4.65;;
29574;SDS011;16507;51.046;6.406;2023-07-31T03:48:07;18.98;;;4.45;;
29574;SDS011;16507;51.046;6.406;2023-07-31T03:50:33;10.57;;;4.50;;
29574;SDS011;16507;51.046;6.406;2023-07-31T03:52:58;9.70;;;4.82;;
29574;SDS011;16507;51.046;6.406;2023-07-31T03:55:24;9.00;;;4.75;;
29574;SDS011;16507;51.046;6.406;2023-07-31T03:57:49;9.57;;;4.22;;
29574;SDS011;16507;51.046;6.406;2023-07-31T04:00:15;8.68;;;4.40;;
29574;SDS011;16507;51.046;6.406;2023-07-31T04:02:40;10.52;;;3.92;;
29574;SDS011;16507;51.046;6.406;2023-07-31T04:05:06;10.90;;;4.60;;
29574;SDS011;16507;51.046;6.406;2023-07-31T04:07:32;7.35;;;4.13;;
29574;SDS011;16507;51.046;6.406;2023-07-31T04:09:58;8.55;;;4.40;;
29574;SDS011;16507;51.046;6.406;2023-07-31T04:12:24;9.82;;;4.10;;
29574;SDS011;16507;51.046;6.406;2023-07-31T04:14:50;10.43;;;4.30;;
29574;SDS011;16507;51.046;6.406;2023-07-31T04:17:17;8.10;;;4.65;;
29574;SDS011;16507;51.046;6.406;2023-07-31T04:19:42;7.32;;;3.63;;
29574;SDS011;16507;51.046;6.406;2023-07-31T04:22:08;12.48;;;4.65;;
29574;SDS011;16507;51.046;6.406;2023-07-31T04:24:34;9.10;;;3.65;;
29574;SDS011;16507;51.046;6.406;2023-07-31T04:26:59;4.40;;;3.85;;
29574;SDS011;16507;51.046;6.406;2023-07-31T04:29:25;9.57;;;4.65;;
29574;SDS011;16507;51.046;6.406;2023-07-31T04:31:50;7.65;;;4.57;;
29574;SDS011;16507;51.046;6.406;2023-07-31T04:34:16;6.22;;;4.30;;
29574;SDS011;16507;51.046;6.406;2023-07-31T04:36:42;6.72;;;4.15;;
29574;SDS011;16507;51.046;6.406;2023-07-31T04:39:07;11.50;;;4.72;;
29574;SDS011;16507;51.046;6.406;2023-07-31T04:41:33;6.60;;;4.35;;
29574;SDS011;16507;51.046;6.406;2023-07-31T04:43:58;8.15;;;3.65;;
29574;SDS011;16507;51.046;6.406;2023-07-31T04:46:24;7.95;;;3.97;;
29574;SDS011;16507;51.046;6.406;2023-07-31T04:48:50;8.93;;;4.07;;
29574;SDS011;16507;51.046;6.406;2023-07-31T04:51:15;8.60;;;4.05;;
29574;SDS011;16507;51.046;6.406;2023-07-31T04:53:41;8.75;;;4.35;;
29574;SDS011;16507;51.046;6.406;2023-07-31T04:56:06;8.82;;;3.80;;
29574;SDS011;16507;51.046;6.406;2023-07-31T04:58:32;5.20;;;3.85;;
29574;SDS011;16507;51.046;6.406;2023-07-31T05:00:58;8.85;;;3.78;;
29574;SDS011;16507;51.046;6.406;2023-07-31T05:03:23;4.43;;;3.58;;
29574;SDS011;16507;51.046;6.406;2023-07-31T05:05:49;7.47;;;3.78;;
29574;SDS011;16507;51.046;6.406;2023-07-31T05:08:15;5.43;;;3.83;;
29574;SDS011;16507;51.046;6.406;2023-07-31T05:10:42;7.43;;;3.75;;
29574;SDS011;16507;51.046;6.406;2023-07-31T05:13:08;8.60;;;4.05;;
29574;SDS011;16507;51.046;6.406;2023-07-31T05:15:34;7.70;;;3.40;;
29574;SDS011;16507;51.046;6.406;2023-07-31T05:17:59;5.43;;;3.85;;
29574;SDS011;16507;51.046;6.406;2023-07-31T05:20:25;5.32;;;3.55;;
29574;SDS011;16507;51.046;6.406;2023-07-31T05:22:51;5.32;;;3.70;;
29574;SDS011;16507;51.046;6.406;2023-07-31T05:25:16;4.18;;;3.42;;
29574;SDS011;16507;51.046;6.406;2023-07-31T05:27:42;6.38;;;3.58;;
29574;SDS011;16507;51.046;6.406;2023-07-31T05:30:08;3.22;;;2.92;;
29574;SDS011;16507;51.046;6.406;2023-07-31T05:32:33;5.15;;;3.53;;
29574;SDS011;16507;51.046;6.406;2023-07-31T05:34:59;5.47;;;3.50;;
29574;SDS011;16507;51.046;6.406;2023-07-31T05:37:25;4.55;;;3.28;;
29574;SDS011;16507;51.046;6.406;2023-07-31T05:39:50;7.82;;;3.42;;
29574;SDS011;16507;51.046;6.406;2023-07-31T05:42:17;6.45;;;3.05;;
29574;SDS011;16507;51.046;6.406;2023-07-31T05:44:42;7.28;;;3.30;;
29574;SDS011;16507;51.046;6.406;2023-07-31T05:47:08;5.85;;;3.13;;
29574;SDS011;16507;51.046;6.406;2023-07-31T05:49:34;4.75;;;3.30;;
29574;SDS011;16507;51.046;6.406;2023-07-31T05:52:00;8.18;;;3.47;;
29574;SDS011;16507;51.046;6.406;2023-07-31T05:54:25;5.80;;;3.50;;
29574;SDS011;16507;51.046;6.406;2023-07-31T05:56:51;7.05;;;3.60;;
29574;SDS011;16507;51.046;6.406;2023-07-31T05:59:16;5.28;;;3.38;;
29574;SDS011;16507;51.046;6.406;2023-07-31T06:01:42;4.88;;;2.65;;
29574;SDS011;16507;51.046;6.406;2023-07-31T06:04:07;4.63;;;3.22;;
29574;SDS011;16507;51.046;6.406;2023-07-31T06:06:33;5.55;;;3.53;;
29574;SDS011;16507;51.046;6.406;2023-07-31T06:08:59;5.55;;;3.15;;
29574;SDS011;16507;51.046;6.406;2023-07-31T06:11:25;8.70;;;3.10;;
29574;SDS011;16507;51.046;6.406;2023-07-31T06:13:51;7.15;;;3.30;;
29574;SDS011;16507;51.046;6.406;2023-07-31T06:16:16;6.60;;;3.10;;
29574;SDS011;16507;51.046;6.406;2023-07-31T06:18:42;3.88;;;3.00;;
29574;SDS011;16507;51.046;6.406;2023-07-31T06:21:08;5.03;;;3.08;;
29574;SDS011;16507;51.046;6.406;2023-07-31T06:23:35;8.15;;;3.72;;
29574;SDS011;16507;51.046;6.406;2023-07-31T06:26:00;3.60;;;2.47;;
29574;SDS011;16507;51.046;6.406;2023-07-31T06:28:29;3.53;;;3.10;;
29574;SDS011;16507;51.046;6.406;2023-07-31T06:30:56;5.57;;;3.03;;
29574;SDS011;16507;51.046;6.406;2023-07-31T06:33:25;8.15;;;2.92;;
29574;SDS011;16507;51.046;6.406;2023-07-31T06:35:51;4.22;;;3.08;;
29574;SDS011;16507;51.046;6.406;2023-07-31T06:38:22;7.93;;;3.42;;
29574;SDS011;16507;51.046;6.406;2023-07-31T06:40:49;6.15;;;3.17;;
29574;SDS011;16507;51.046;6.406;2023-07-31T06:43:15;3.20;;;2.70;;
29574;SDS011;16507;51.046;6.406;2023-07-31T06:45:41;7.93;;;2.95;;
29574;SDS011;16507;51.046;6.406;2023-07-31T06:48:06;6.93;;;3.13;;
29574;SDS011;16507;51.046;6.406;2023-07-31T06:50:32;6.15;;;2.75;;
29574;SDS011;16507;51.046;6.406;2023-07-31T06:52:58;3.38;;;2.75;;
29574;SDS011;16507;51.046;6.406;2023-07-31T06:55:24;4.63;;;2.83;;
29574;SDS011;16507;51.046;6.406;2023-07-31T06:57:51;8.32;;;3.15;;
29574;SDS011;16507;51.046;6.406;2023-07-31T07:00:18;8.80;;;3.10;;
29574;SDS011;16507;51.046;6.406;2023-07-31T07:02:44;4.65;;;2.65;;
29574;SDS011;16507;51.046;6.406;2023-07-31T07:05:12;5.57;;;2.78;;
29574;SDS011;16507;51.046;6.406;2023-07-31T07:07:38;9.07;;;3.05;;
29574;SDS011;16507;51.046;6.406;2023-07-31T07:10:04;7.45;;;3.10;;
29574;SDS011;16507;51.046;6.406;2023-07-31T07:12:31;4.70;;;3.28;;
29574;SDS011;16507;51.046;6.406;2023-07-31T07:14:57;3.78;;;2.70;;
29574;SDS011;16507;51.046;6.406;2023-07-31T07:17:24;4.18;;;2.90;;
29574;SDS011;16507;51.046;6.406;2023-07-31T07:19:50;6.00;;;3.33;;
29574;SDS011;16507;51.046;6.406;2023-07-31T07:22:15;3.70;;;2.42;;
29574;SDS011;16507;51.046;6.406;2023-07-31T07:24:41;6.70;;;2.83;;
29574;SDS011;16507;51.046;6.406;2023-07-31T07:27:07;4.50;;;2.70;;
29574;SDS011;16507;51.046;6.406;2023-07-31T07:29:33;8.38;;;3.72;;
29574;SDS011;16507;51.046;6.406;2023-07-31T07:31:59;4.85;;;2.33;;
29574;SDS011;16507;51.046;6.406;2023-07-31T07:34:25;4.45;;;2.58;;
29574;SDS011;16507;51.046;6.406;2023-07-31T07:36:52;6.80;;;2.90;;
29574;SDS011;16507;51.046;6.406;2023-07-31T07:39:18;5.60;;;2.92;;
29574;SDS011;16507;51.046;6.406;2023-07-31T07:41:44;5.80;;;2.80;;
29574;SDS011;16507;51.046;6.406;2023-07-31T07:44:09;6.57;;;2.63;;
29574;SDS011;16507;51.046;6.406;2023-07-31T07:46:35;4.88;;;3.17;;
29574;SDS011;16507;51.046;6.406;2023-07-31T07:49:00;3.90;;;3.20;;
29574;SDS011;16507;51.046;6.406;2023-07-31T07:51:26;6.85;;;2.78;;
29574;SDS011;16507;51.046;6.406;2023-07-31T07:53:52;6.22;;;3.30;;
29574;SDS011;16507;51.046;6.406;2023-07-31T07:56:17;5.07;;;2.80;;
29574;SDS011;16507;51.046;6.406;2023-07-31T07:58:43;4.47;;;2.70;;
29574;SDS011;16507;51.046;6.406;2023-07-31T08:01:08;3.50;;;2.60;;
29574;SDS011;16507;51.046;6.406;2023-07-31T08:03:34;4.22;;;2.63;;
29574;SDS011;16507;51.046;6.406;2023-07-31T08:06:00;2.53;;;2.33;;
29574;SDS011;16507;51.046;6.406;2023-07-31T08:08:26;4.05;;;2.80;;
29574;SDS011;16507;51.046;6.406;2023-07-31T08:10:52;4.90;;;3.10;;
29574;SDS011;16507;51.046;6.406;2023-07-31T08:13:17;3.85;;;2.88;;
29574;SDS011;16507;51.046;6.406;2023-07-31T08:15:43;4.13;;;2.70;;
29574;SDS011;16507;51.046;6.406;2023-07-31T08:18:11;9.82;;;3.25;;
29574;SDS011;16507;51.046;6.406;2023-07-31T08:20:37;5.18;;;3.47;;
29574;SDS011;16507;51.046;6.406;2023-07-31T08:23:03;6.28;;;3.13;;
29574;SDS011;16507;51.046;6.406;2023-07-31T08:25:29;5.18;;;2.65;;
29574;SDS011;16507;51.046;6.406;2023-07-31T08:27:55;5.97;;;3.00;;
29574;SDS011;16507;51.046;6.406;2023-07-31T08:30:21;3.15;;;2.20;;
29574;SDS011;16507;51.046;6.406;2023-07-31T08:32:46;3.35;;;2.70;;
29574;SDS011;16507;51.046;6.406;2023-07-31T08:35:12;3.83;;;2.67;;
29574;SDS011;16507;51.046;6.406;2023-07-31T08:37:38;3.47;;;2.53;;
29574;SDS011;16507;51.046;6.406;2023-07-31T08:40:04;2.78;;;2.08;;
29574;SDS011;16507;51.046;6.406;2023-07-31T08:42:30;9.40;;;2.08;;
29574;SDS011;16507;51.046;6.406;2023-07-31T08:44:57;9.00;;;2.65;;
29574;SDS011;16507;51.046;6.406;2023-07-31T08:47:25;3.30;;;2.60;;
29574;SDS011;16507;51.046;6.406;2023-07-31T08:49:51;3.63;;;2.22;;
29574;SDS011;16507;51.046;6.406;2023-07-31T08:52:19;7.88;;;3.35;;
29574;SDS011;16507;51.046;6.406;2023-07-31T08:54:45;3.75;;;2.50;;
29574;SDS011;16507;51.046;6.406;2023-07-31T08:57:11;3.53;;;2.92;;
29574;SDS011;16507;51.046;6.406;2023-07-31T08:59:37;4.72;;;2.70;;
29574;SDS011;16507;51.046;6.406;2023-07-31T09:02:07;5.28;;;3.15;;
29574;SDS011;16507;51.046;6.406;2023-07-31T09:04:33;5.95;;;3.10;;
29574;SDS011;16507;51.046;6.406;2023-07-31T09:07:00;5.95;;;2.92;;
29574;SDS011;16507;51.046;6.406;2023-07-31T09:09:28;2.72;;;2.40;;
29574;SDS011;16507;51.046;6.406;2023-07-31T09:11:54;4.18;;;2.75;;
29574;SDS011;16507;51.046;6.406;2023-07-31T09:14:20;5.88;;;2.65;;
29574;SDS011;16507;51.046;6.406;2023-07-31T09:16:53;3.03;;;2.40;;
29574;SDS011;16507;51.046;6.406;2023-07-31T09:19:27;5.63;;;3.13;;
29574;SDS011;16507;51.046;6.406;2023-07-31T09:21:54;3.33;;;2.78;;
29574;SDS011;16507;51.046;6.406;2023-07-31T09:24:27;3.38;;;2.60;;
29574;SDS011;16507;51.046;6.406;2023-07-31T09:26:53;4.00;;;2.28;;
29574;SDS011;16507;51.046;6.406;2023-07-31T09:29:23;7.15;;;2.67;;
29574;SDS011;16507;51.046;6.406;2023-07-31T09:31:50;5.43;;;2.65;;
29574;SDS011;16507;51.046;6.406;2023-07-31T09:34:15;4.85;;;2.22;;
29574;SDS011;16507;51.046;6.406;2023-07-31T09:36:45;3.00;;;2.28;;
29574;SDS011;16507;51.046;6.406;2023-07-31T09:39:11;4.00;;;2.50;;
29574;SDS011;16507;51.046;6.406;2023-07-31T09:41:39;8.35;;;2.40;;
29574;SDS011;16507;51.046;6.406;2023-07-31T09:44:05;2.92;;;2.60;;
29574;SDS011;16507;51.046;6.406;2023-07-31T09:46:32;5.28;;;2.50;;
29574;SDS011;16507;51.046;6.406;2023-07-31T09:49:11;3.65;;;2.45;;
29574;SDS011;16507;51.046;6.406;2023-07-31T09:51:38;4.30;;;2.30;;
29574;SDS011;16507;51.046;6.406;2023-07-31T09:54:11;3.08;;;2.72;;
29574;SDS011;16507;51.046;6.406;2023-07-31T09:56:39;4.45;;;2.55;;
29574;SDS011;16507;51.046;6.406;2023-07-31T09:59:08;4.22;;;2.67;;
29574;SDS011;16507;51.046;6.406;2023-07-31T10:01:36;5.55;;;2.70;;
29574;SDS011;16507;51.046;6.406;2023-07-31T10:04:03;4.75;;;3.00;;
29574;SDS011;16507;51.046;6.406;2023-07-31T10:06:30;3.83;;;3.17;;
29574;SDS011;16507;51.046;6.406;2023-07-31T10:08:57;6.80;;;2.80;;
29574;SDS011;16507;51.046;6.406;2023-07-31T10:11:24;4.38;;;3.08;;
29574;SDS011;16507;51.046;6.406;2023-07-31T10:13:52;5.53;;;3.10;;
29574;SDS011;16507;51.046;6.406;2023-07-31T10:16:18;4.03;;;2.95;;
29574;SDS011;16507;51.046;6.406;2023-07-31T10:18:45;4.45;;;2.55;;
29574;SDS011;16507;51.046;6.406;2023-07-31T10:21:12;4.72;;;2.38;;
29574;SDS011;16507;51.046;6.406;2023-07-31T10:23:39;5.32;;;2.50;;
29574;SDS011;16507;51.046;6.406;2023-07-31T10:26:06;3.70;;;2.58;;
29574;SDS011;16507;51.046;6.406;2023-07-31T10:28:33;2.90;;;2.50;;
29574;SDS011;16507;51.046;6.406;2023-07-31T10:31:01;3.53;;;2.22;;
29574;SDS011;16507;51.046;6.406;2023-07-31T10:33:28;4.40;;;2.30;;
29574;SDS011;16507;51.046;6.406;2023-07-31T10:38:42;6.53;;;1.80;;
29574;SDS011;16507;51.046;6.406;2023-07-31T10:41:08;1.40;;;1.30;;
29574;SDS011;16507;51.046;6.406;2023-07-31T10:43:35;1.63;;;1.42;;
29574;SDS011;16507;51.046;6.406;2023-07-31T10:46:07;1.75;;;1.50;;
29574;SDS011;16507;51.046;6.406;2023-07-31T10:48:34;4.10;;;1.55;;
29574;SDS011;16507;51.046;6.406;2023-07-31T10:51:02;2.63;;;1.20;;
29574;SDS011;16507;51.046;6.406;2023-07-31T10:53:36;1.23;;;1.13;;
29574;SDS011;16507;51.046;6.406;2023-07-31T10:56:06;2.15;;;1.20;;
29574;SDS011;16507;51.046;6.406;2023-07-31T10:58:33;1.30;;;1.20;;
29574;SDS011;16507;51.046;6.406;2023-07-31T11:01:00;1.20;;;1.10;;
29574;SDS011;16507;51.046;6.406;2023-07-31T11:06:06;1.52;;;1.02;;
29574;SDS011;16507;51.046;6.406;2023-07-31T11:08:33;1.20;;;1.10;;
29574;SDS011;16507;51.046;6.406;2023-07-31T11:13:34;2.58;;;1.00;;
29574;SDS011;16507;51.046;6.406;2023-07-31T11:16:05;1.73;;;0.70;;
29574;SDS011;16507;51.046;6.406;2023-07-31T11:18:31;1.13;;;1.02;;
29574;SDS011;16507;51.046;6.406;2023-07-31T11:20:57;1.35;;;1.25;;
29574;SDS011;16507;51.046;6.406;2023-07-31T11:23:23;1.00;;;0.90;;
29574;SDS011;16507;51.046;6.406;2023-07-31T11:25:49;1.10;;;1.00;;
29574;SDS011;16507;51.046;6.406;2023-07-31T11:28:16;0.98;;;0.90;;
29574;SDS011;16507;51.046;6.406;2023-07-31T11:30:42;1.20;;;0.88;;
29574;SDS011;16507;51.046;6.406;2023-07-31T11:33:10;1.33;;;1.00;;
29574;SDS011;16507;51.046;6.406;2023-07-31T11:35:47;2.90;;;1.20;;
29574;SDS011;16507;51.046;6.406;2023-07-31T11:38:33;1.10;;;1.00;;
29574;SDS011;16507;51.046;6.406;2023-07-31T11:41:03;6.70;;;1.00;;
29574;SDS011;16507;51.046;6.406;2023-07-31T11:43:32;1.40;;;0.90;;
29574;SDS011;16507;51.046;6.406;2023-07-31T11:45:59;4.63;;;1.42;;
29574;SDS011;16507;51.046;6.406;2023-07-31T11:48:28;1.98;;;1.10;;
29574;SDS011;16507;51.046;6.406;2023-07-31T11:51:09;1.65;;;1.35;;
29574;SDS011;16507;51.046;6.406;2023-07-31T11:56:02;2.65;;;1.63;;
29574;SDS011;16507;51.046;6.406;2023-07-31T11:58:30;1.80;;;1.23;;
29574;SDS011;16507;51.046;6.406;2023-07-31T12:00:56;1.83;;;1.73;;
29574;SDS011;16507;51.046;6.406;2023-07-31T12:03:23;2.45;;;1.58;;
29574;SDS011;16507;51.046;6.406;2023-07-31T12:05:49;2.15;;;1.98;;
29574;SDS011;16507;51.046;6.406;2023-07-31T12:08:15;2.40;;;2.03;;
29574;SDS011;16507;51.046;6.406;2023-07-31T12:10:41;3.50;;;1.88;;
29574;SDS011;16507;51.046;6.406;2023-07-31T12:13:10;2.55;;;2.33;;
29574;SDS011;16507;51.046;6.406;2023-07-31T12:15:41;2.67;;;2.30;;
29574;SDS011;16507;51.046;6.406;2023-07-31T12:18:11;4.70;;;2.60;;
29574;SDS011;16507;51.046;6.406;2023-07-31T12:23:27;2.92;;;2.65;;
29574;SDS011;16507;51.046;6.406;2023-07-31T12:26:01;2.65;;;2.42;;
29574;SDS011;16507;51.046;6.406;2023-07-31T12:28:37;5.03;;;2.47;;
29574;SDS011;16507;51.046;6.406;2023-07-31T12:31:17;4.75;;;2.90;;
29574;SDS011;16507;51.046;6.406;2023-07-31T12:33:44;3.22;;;2.38;;
29574;SDS011;16507;51.046;6.406;2023-07-31T12:36:15;2.58;;;2.38;;
29574;SDS011;16507;51.046;6.406;2023-07-31T12:38:42;4.00;;;2.40;;
29574;SDS011;16507;51.046;6.406;2023-07-31T12:41:08;2.85;;;2.30;;
29574;SDS011;16507;51.046;6.406;2023-07-31T12:43:34;3.35;;;2.53;;
29574;SDS011;16507;51.046;6.406;2023-07-31T12:46:01;2.72;;;2.40;;
29574;SDS011;16507;51.046;6.406;2023-07-31T12:48:27;2.85;;;2.55;;
29574;SDS011;16507;51.046;6.406;2023-07-31T12:50:52;2.63;;;2.10;;
29574;SDS011;16507;51.046;6.406;2023-07-31T12:53:18;2.47;;;2.28;;
29574;SDS011;16507;51.046;6.406;2023-07-31T12:55:43;4.85;;;2.05;;
29574;SDS011;16507;51.046;6.406;2023-07-31T12:58:09;2.72;;;2.00;;
29574;SDS011;16507;51.046;6.406;2023-07-31T13:00:34;4.15;;;2.08;;
29574;SDS011;16507;51.046;6.406;2023-07-31T13:03:00;3.15;;;2.30;;
29574;SDS011;16507;51.046;6.406;2023-07-31T13:05:27;2.78;;;2.58;;
29574;SDS011;16507;51.046;6.406;2023-07-31T13:07:53;2.58;;;2.35;;
29574;SDS011;16507;51.046;6.406;2023-07-31T13:10:19;4.35;;;2.30;;
29574;SDS011;16507;51.046;6.406;2023-07-31T13:12:45;2.47;;;2.28;;
29574;SDS011;16507;51.046;6.406;2023-07-31T13:15:11;3.47;;;2.10;;
29574;SDS011;16507;51.046;6.406;2023-07-31T13:17:37;3.92;;;2.03;;
29574;SDS011;16507;51.046;6.406;2023-07-31T13:20:03;2.97;;;2.08;;
29574;SDS011;16507;51.046;6.406;2023-07-31T13:22:29;2.20;;;2.00;;
29574;SDS011;16507;51.046;6.406;2023-07-31T13:24:55;5.05;;;2.10;;
29574;SDS011;16507;51.046;6.406;2023-07-31T13:27:21;3.45;;;2.30;;
29574;SDS011;16507;51.046;6.406;2023-07-31T13:29:50;3.55;;;2.13;;
29574;SDS011;16507;51.046;6.406;2023-07-31T13:32:16;2.38;;;2.03;;
29574;SDS011;16507;51.046;6.406;2023-07-31T13:34:44;2.15;;;1.95;;
29574;SDS011;16507;51.046;6.406;2023-07-31T13:37:10;3.25;;;2.03;;
29574;SDS011;16507;51.046;6.406;2023-07-31T13:39:36;3.00;;;2.17;;
29574;SDS011;16507;51.046;6.406;2023-07-31T13:42:02;4.40;;;1.95;;
29574;SDS011;16507;51.046;6.406;2023-07-31T13:44:28;2.70;;;1.98;;
29574;SDS011;16507;51.046;6.406;2023-07-31T13:46:54;4.97;;;1.70;;
29574;SDS011;16507;51.046;6.406;2023-07-31T13:49:20;6.07;;;1.73;;
29574;SDS011;16507;51.046;6.406;2023-07-31T13:51:45;2.17;;;2.00;;
29574;SDS011;16507;51.046;6.406;2023-07-31T13:54:11;2.10;;;2.00;;
29574;SDS011;16507;51.046;6.406;2023-07-31T13:56:37;4.47;;;2.13;;
29574;SDS011;16507;51.046;6.406;2023-07-31T13:59:03;3.63;;;2.22;;
29574;SDS011;16507;51.046;6.406;2023-07-31T14:01:29;2.33;;;1.88;;
29574;SDS011;16507;51.046;6.406;2023-07-31T14:03:55;2.65;;;1.80;;
29574;SDS011;16507;51.046;6.406;2023-07-31T14:06:20;2.75;;;2.17;;
29574;SDS011;16507;51.046;6.406;2023-07-31T14:08:46;4.57;;;2.38;;
29574;SDS011;16507;51.046;6.406;2023-07-31T14:11:12;4.18;;;2.28;;
29574;SDS011;16507;51.046;6.406;2023-07-31T14:13:37;2.53;;;2.30;;
29574;SDS011;16507;51.046;6.406;2023-07-31T14:16:03;3.72;;;2.70;;
29574;SDS011;16507;51.046;6.406;2023-07-31T14:18:29;3.72;;;2.35;;
29574;SDS011;16507;51.046;6.406;2023-07-31T14:20:54;2.78;;;2.58;;
29574;SDS011;16507;51.046;6.406;2023-07-31T14:23:20;2.78;;;2.58;;
29574;SDS011;16507;51.046;6.406;2023-07-31T14:25:46;3.03;;;2.67;;
29574;SDS011;16507;51.046;6.406;2023-07-31T14:28:12;4.38;;;2.67;;
29574;SDS011;16507;51.046;6.406;2023-07-31T14:30:38;3.95;;;3.00;;
29574;SDS011;16507;51.046;6.406;2023-07-31T14:33:03;2.80;;;2.60;;
29574;SDS011;16507;51.046;6.406;2023-07-31T14:35:29;3.42;;;3.05;;
29574;SDS011;16507;51.046;6.406;2023-07-31T14:37:54;5.13;;;2.65;;
29574;SDS011;16507;51.046;6.406;2023-07-31T14:40:20;2.80;;;2.60;;
29574;SDS011;16507;51.046;6.406;2023-07-31T14:42:46;4.05;;;2.88;;
29574;SDS011;16507;51.046;6.406;2023-07-31T14:45:11;2.92;;;2.72;;
29574;SDS011;16507;51.046;6.406;2023-07-31T14:47:37;3.28;;;2.70;;
29574;SDS011;16507;51.046;6.406;2023-07-31T14:50:03;3.92;;;2.90;;
29574;SDS011;16507;51.046;6.406;2023-07-31T14:52:29;3.75;;;2.40;;
29574;SDS011;16507;51.046;6.406;2023-07-31T14:54:55;4.45;;;3.00;;
29574;SDS011;16507;51.046;6.406;2023-07-31T14:57:20;2.75;;;2.55;;
29574;SDS011;16507;51.046;6.406;2023-07-31T14:59:47;6.63;;;3.00;;
29574;SDS011;16507;51.046;6.406;2023-07-31T15:02:12;4.20;;;3.05;;